sensor_id;sensor_type;location;lat;lon;timestamp;P1;durP1;ratioP1;P2;durP2;ratioP2
29534;SDS011;16475;52.650;8.116;2023-06-26T00:01:33;3.20;;;2.53;;
29534;SDS011;16475;52.650;8.116;2023-06-26T00:03:59;2.20;;;2.10;;
29534;SDS011;16475;52.650;8.116;2023-06-26T00:06:25;2.77;;;2.53;;
29534;SDS011;16475;52.650;8.116;2023-06-26T00:08:51;4.77;;;3.43;;
29534;SDS011;16475;52.650;8.116;2023-06-26T00:11:18;6.00;;;2.37;;
29534;SDS011;16475;52.650;8.116;2023-06-26T00:13:43;8.43;;;3.17;;
29534;SDS011;16475;52.650;8.116;2023-06-26T00:16:09;2.90;;;2.67;;
29534;SDS011;16475;52.650;8.116;2023-06-26T00:18:34;2.80;;;2.13;;
29534;SDS011;16475;52.650;8.116;2023-06-26T00:20:59;3.03;;;2.63;;
29534;SDS011;16475;52.650;8.116;2023-06-26T00:23:25;6.93;;;3.57;;
29534;SDS011;16475;52.650;8.116;2023-06-26T00:25:52;9.37;;;2.50;;
29534;SDS011;16475;52.650;8.116;2023-06-26T00:28:17;4.10;;;2.93;;
29534;SDS011;16475;52.650;8.116;2023-06-26T00:30:43;6.73;;;3.43;;
29534;SDS011;16475;52.650;8.116;2023-06-26T00:33:08;6.50;;;2.97;;
29534;SDS011;16475;52.650;8.116;2023-06-26T00:35:33;5.93;;;4.37;;
29534;SDS011;16475;52.650;8.116;2023-06-26T00:38:00;5.07;;;3.03;;
29534;SDS011;16475;52.650;8.116;2023-06-26T00:40:25;3.70;;;3.23;;
29534;SDS011;16475;52.650;8.116;2023-06-26T00:42:51;5.20;;;3.77;;
29534;SDS011;16475;52.650;8.116;2023-06-26T00:45:17;6.17;;;3.13;;
29534;SDS011;16475;52.650;8.116;2023-06-26T00:47:42;19.63;;;3.00;;
29534;SDS011;16475;52.650;8.116;2023-06-26T00:50:07;7.40;;;3.90;;
29534;SDS011;16475;52.650;8.116;2023-06-26T00:52:33;4.00;;;3.00;;
29534;SDS011;16475;52.650;8.116;2023-06-26T00:54:58;3.90;;;2.30;;
29534;SDS011;16475;52.650;8.116;2023-06-26T00:57:24;5.07;;;3.10;;
29534;SDS011;16475;52.650;8.116;2023-06-26T00:59:49;8.20;;;3.90;;
29534;SDS011;16475;52.650;8.116;2023-06-26T01:02:15;2.53;;;2.30;;
29534;SDS011;16475;52.650;8.116;2023-06-26T01:04:46;3.97;;;2.93;;
29534;SDS011;16475;52.650;8.116;2023-06-26T01:07:12;4.53;;;2.50;;
29534;SDS011;16475;52.650;8.116;2023-06-26T01:09:38;4.37;;;2.70;;
29534;SDS011;16475;52.650;8.116;2023-06-26T01:12:03;3.90;;;2.97;;
29534;SDS011;16475;52.650;8.116;2023-06-26T01:14:29;4.47;;;3.70;;
29534;SDS011;16475;52.650;8.116;2023-06-26T01:16:54;6.90;;;3.70;;
29534;SDS011;16475;52.650;8.116;2023-06-26T01:19:27;3.43;;;3.13;;
29534;SDS011;16475;52.650;8.116;2023-06-26T01:22:02;2.57;;;2.40;;
29534;SDS011;16475;52.650;8.116;2023-06-26T01:24:33;19.87;;;3.30;;
29534;SDS011;16475;52.650;8.116;2023-06-26T01:27:02;9.20;;;3.20;;
29534;SDS011;16475;52.650;8.116;2023-06-26T01:29:28;3.90;;;2.47;;
29534;SDS011;16475;52.650;8.116;2023-06-26T01:31:55;4.90;;;3.30;;
29534;SDS011;16475;52.650;8.116;2023-06-26T01:34:20;3.83;;;3.40;;
29534;SDS011;16475;52.650;8.116;2023-06-26T01:36:46;10.53;;;2.10;;
29534;SDS011;16475;52.650;8.116;2023-06-26T01:39:15;2.30;;;2.10;;
29534;SDS011;16475;52.650;8.116;2023-06-26T01:41:42;6.30;;;2.77;;
29534;SDS011;16475;52.650;8.116;2023-06-26T01:44:11;7.43;;;2.70;;
29534;SDS011;16475;52.650;8.116;2023-06-26T01:49:21;6.63;;;2.83;;
29534;SDS011;16475;52.650;8.116;2023-06-26T01:54:53;6.70;;;4.27;;
29534;SDS011;16475;52.650;8.116;2023-06-26T01:57:19;2.93;;;2.70;;
29534;SDS011;16475;52.650;8.116;2023-06-26T01:59:45;2.63;;;2.43;;
29534;SDS011;16475;52.650;8.116;2023-06-26T02:02:11;2.40;;;2.20;;
29534;SDS011;16475;52.650;8.116;2023-06-26T02:04:37;9.13;;;3.23;;
29534;SDS011;16475;52.650;8.116;2023-06-26T02:07:02;2.73;;;2.27;;
29534;SDS011;16475;52.650;8.116;2023-06-26T02:09:28;3.77;;;3.00;;
29534;SDS011;16475;52.650;8.116;2023-06-26T02:11:53;2.57;;;2.40;;
29534;SDS011;16475;52.650;8.116;2023-06-26T02:14:19;4.40;;;2.90;;
29534;SDS011;16475;52.650;8.116;2023-06-26T02:16:44;3.80;;;3.10;;
29534;SDS011;16475;52.650;8.116;2023-06-26T02:19:09;4.50;;;3.23;;
29534;SDS011;16475;52.650;8.116;2023-06-26T02:21:35;7.20;;;2.70;;
29534;SDS011;16475;52.650;8.116;2023-06-26T02:24:00;3.20;;;2.90;;
29534;SDS011;16475;52.650;8.116;2023-06-26T02:26:27;2.83;;;2.57;;
29534;SDS011;16475;52.650;8.116;2023-06-26T02:28:53;2.97;;;2.33;;
29534;SDS011;16475;52.650;8.116;2023-06-26T02:31:18;4.83;;;3.00;;
29534;SDS011;16475;52.650;8.116;2023-06-26T02:33:43;3.77;;;2.63;;
29534;SDS011;16475;52.650;8.116;2023-06-26T02:36:10;3.23;;;2.63;;
29534;SDS011;16475;52.650;8.116;2023-06-26T02:38:35;5.47;;;2.60;;
29534;SDS011;16475;52.650;8.116;2023-06-26T02:41:01;9.93;;;3.43;;
29534;SDS011;16475;52.650;8.116;2023-06-26T02:43:26;5.03;;;3.53;;
29534;SDS011;16475;52.650;8.116;2023-06-26T02:45:51;3.50;;;2.33;;
29534;SDS011;16475;52.650;8.116;2023-06-26T02:48:17;3.10;;;1.87;;
29534;SDS011;16475;52.650;8.116;2023-06-26T02:50:42;4.17;;;3.23;;
29534;SDS011;16475;52.650;8.116;2023-06-26T02:53:10;4.53;;;3.03;;
29534;SDS011;16475;52.650;8.116;2023-06-26T02:55:36;5.23;;;3.27;;
29534;SDS011;16475;52.650;8.116;2023-06-26T02:58:01;6.30;;;4.37;;
29534;SDS011;16475;52.650;8.116;2023-06-26T03:00:27;4.30;;;3.40;;
29534;SDS011;16475;52.650;8.116;2023-06-26T03:02:54;2.67;;;2.50;;
29534;SDS011;16475;52.650;8.116;2023-06-26T03:05:20;3.33;;;2.40;;
29534;SDS011;16475;52.650;8.116;2023-06-26T03:07:45;7.40;;;4.03;;
29534;SDS011;16475;52.650;8.116;2023-06-26T03:10:10;6.60;;;3.70;;
29534;SDS011;16475;52.650;8.116;2023-06-26T03:12:36;8.30;;;3.40;;
29534;SDS011;16475;52.650;8.116;2023-06-26T03:15:01;9.60;;;3.63;;
29534;SDS011;16475;52.650;8.116;2023-06-26T03:17:27;3.10;;;2.80;;
29534;SDS011;16475;52.650;8.116;2023-06-26T03:19:52;3.20;;;2.80;;
29534;SDS011;16475;52.650;8.116;2023-06-26T03:22:17;1.90;;;1.80;;
29534;SDS011;16475;52.650;8.116;2023-06-26T03:24:43;5.00;;;3.47;;
29534;SDS011;16475;52.650;8.116;2023-06-26T03:27:10;40.57;;;3.50;;
29534;SDS011;16475;52.650;8.116;2023-06-26T03:29:35;7.00;;;2.77;;
29534;SDS011;16475;52.650;8.116;2023-06-26T03:32:01;7.20;;;3.00;;
29534;SDS011;16475;52.650;8.116;2023-06-26T03:34:26;4.67;;;3.27;;
29534;SDS011;16475;52.650;8.116;2023-06-26T03:36:51;4.23;;;2.40;;
29534;SDS011;16475;52.650;8.116;2023-06-26T03:39:16;9.80;;;2.93;;
29534;SDS011;16475;52.650;8.116;2023-06-26T03:41:42;4.47;;;2.87;;
29534;SDS011;16475;52.650;8.116;2023-06-26T03:44:07;4.23;;;3.17;;
29534;SDS011;16475;52.650;8.116;2023-06-26T03:46:32;13.80;;;3.03;;
29534;SDS011;16475;52.650;8.116;2023-06-26T03:48:58;3.63;;;3.30;;
29534;SDS011;16475;52.650;8.116;2023-06-26T03:51:23;4.10;;;2.47;;
29534;SDS011;16475;52.650;8.116;2023-06-26T03:53:48;3.50;;;3.20;;
29534;SDS011;16475;52.650;8.116;2023-06-26T03:56:14;9.90;;;3.00;;
29534;SDS011;16475;52.650;8.116;2023-06-26T03:58:39;5.33;;;2.53;;
29534;SDS011;16475;52.650;8.116;2023-06-26T04:01:04;8.10;;;4.10;;
29534;SDS011;16475;52.650;8.116;2023-06-26T04:03:30;13.20;;;3.47;;
29534;SDS011;16475;52.650;8.116;2023-06-26T04:05:56;3.20;;;2.87;;
29534;SDS011;16475;52.650;8.116;2023-06-26T04:08:23;3.10;;;2.63;;
29534;SDS011;16475;52.650;8.116;2023-06-26T04:10:50;3.70;;;2.70;;
29534;SDS011;16475;52.650;8.116;2023-06-26T04:13:16;9.77;;;4.07;;
29534;SDS011;16475;52.650;8.116;2023-06-26T04:15:42;4.63;;;3.10;;
29534;SDS011;16475;52.650;8.116;2023-06-26T04:18:07;4.20;;;2.83;;
29534;SDS011;16475;52.650;8.116;2023-06-26T04:20:32;6.27;;;4.80;;
29534;SDS011;16475;52.650;8.116;2023-06-26T04:23:00;3.17;;;2.60;;
29534;SDS011;16475;52.650;8.116;2023-06-26T04:25:25;3.87;;;2.97;;
29534;SDS011;16475;52.650;8.116;2023-06-26T04:27:54;27.97;;;3.77;;
29534;SDS011;16475;52.650;8.116;2023-06-26T04:30:19;7.53;;;2.60;;
29534;SDS011;16475;52.650;8.116;2023-06-26T04:32:44;3.43;;;3.13;;
29534;SDS011;16475;52.650;8.116;2023-06-26T04:35:10;14.53;;;3.97;;
29534;SDS011;16475;52.650;8.116;2023-06-26T04:37:35;7.77;;;3.40;;
29534;SDS011;16475;52.650;8.116;2023-06-26T04:40:01;8.73;;;3.07;;
29534;SDS011;16475;52.650;8.116;2023-06-26T04:42:28;4.93;;;3.87;;
29534;SDS011;16475;52.650;8.116;2023-06-26T04:44:54;3.00;;;2.60;;
29534;SDS011;16475;52.650;8.116;2023-06-26T04:47:19;5.53;;;3.33;;
29534;SDS011;16475;52.650;8.116;2023-06-26T04:49:44;10.30;;;3.37;;
29534;SDS011;16475;52.650;8.116;2023-06-26T04:52:11;3.77;;;2.90;;
29534;SDS011;16475;52.650;8.116;2023-06-26T04:54:38;5.63;;;3.80;;
29534;SDS011;16475;52.650;8.116;2023-06-26T04:57:04;2.23;;;2.07;;
29534;SDS011;16475;52.650;8.116;2023-06-26T04:59:29;4.10;;;2.90;;
29534;SDS011;16475;52.650;8.116;2023-06-26T05:01:54;7.17;;;3.13;;
29534;SDS011;16475;52.650;8.116;2023-06-26T05:04:20;2.83;;;2.60;;
29534;SDS011;16475;52.650;8.116;2023-06-26T05:06:45;6.10;;;3.40;;
29534;SDS011;16475;52.650;8.116;2023-06-26T05:09:10;5.70;;;3.77;;
29534;SDS011;16475;52.650;8.116;2023-06-26T05:11:36;2.43;;;2.30;;
29534;SDS011;16475;52.650;8.116;2023-06-26T05:14:01;3.77;;;2.97;;
29534;SDS011;16475;52.650;8.116;2023-06-26T05:16:27;18.93;;;3.73;;
29534;SDS011;16475;52.650;8.116;2023-06-26T05:18:52;4.37;;;3.00;;
29534;SDS011;16475;52.650;8.116;2023-06-26T05:21:19;16.83;;;3.70;;
29534;SDS011;16475;52.650;8.116;2023-06-26T05:23:44;5.03;;;3.60;;
29534;SDS011;16475;52.650;8.116;2023-06-26T05:26:10;16.63;;;3.83;;
29534;SDS011;16475;52.650;8.116;2023-06-26T05:28:36;5.20;;;2.90;;
29534;SDS011;16475;52.650;8.116;2023-06-26T05:31:02;2.10;;;1.90;;
29534;SDS011;16475;52.650;8.116;2023-06-26T05:33:29;2.20;;;2.00;;
29534;SDS011;16475;52.650;8.116;2023-06-26T05:35:55;12.27;;;4.47;;
29534;SDS011;16475;52.650;8.116;2023-06-26T05:38:21;8.20;;;3.10;;
29534;SDS011;16475;52.650;8.116;2023-06-26T05:40:47;3.80;;;3.00;;
29534;SDS011;16475;52.650;8.116;2023-06-26T05:43:12;3.50;;;3.23;;
29534;SDS011;16475;52.650;8.116;2023-06-26T05:45:38;6.20;;;3.17;;
29534;SDS011;16475;52.650;8.116;2023-06-26T05:48:05;5.03;;;3.40;;
29534;SDS011;16475;52.650;8.116;2023-06-26T05:50:30;3.87;;;2.73;;
29534;SDS011;16475;52.650;8.116;2023-06-26T05:52:56;6.20;;;2.70;;
29534;SDS011;16475;52.650;8.116;2023-06-26T05:55:21;8.20;;;3.13;;
29534;SDS011;16475;52.650;8.116;2023-06-26T05:57:47;11.60;;;4.43;;
29534;SDS011;16475;52.650;8.116;2023-06-26T06:00:13;13.13;;;4.30;;
29534;SDS011;16475;52.650;8.116;2023-06-26T06:02:39;6.13;;;3.33;;
29534;SDS011;16475;52.650;8.116;2023-06-26T06:05:05;5.10;;;3.37;;
29534;SDS011;16475;52.650;8.116;2023-06-26T06:07:31;4.57;;;3.23;;
29534;SDS011;16475;52.650;8.116;2023-06-26T06:09:57;3.03;;;2.73;;
29534;SDS011;16475;52.650;8.116;2023-06-26T06:12:23;6.13;;;4.10;;
29534;SDS011;16475;52.650;8.116;2023-06-26T06:14:48;7.47;;;3.30;;
29534;SDS011;16475;52.650;8.116;2023-06-26T06:17:14;5.63;;;4.07;;
29534;SDS011;16475;52.650;8.116;2023-06-26T06:19:39;8.17;;;4.87;;
29534;SDS011;16475;52.650;8.116;2023-06-26T06:22:04;6.27;;;4.20;;
29534;SDS011;16475;52.650;8.116;2023-06-26T06:24:30;10.20;;;5.07;;
29534;SDS011;16475;52.650;8.116;2023-06-26T06:26:55;4.83;;;3.37;;
29534;SDS011;16475;52.650;8.116;2023-06-26T06:29:20;7.67;;;4.97;;
29534;SDS011;16475;52.650;8.116;2023-06-26T06:31:46;5.73;;;3.23;;
29534;SDS011;16475;52.650;8.116;2023-06-26T06:34:12;20.07;;;4.10;;
29534;SDS011;16475;52.650;8.116;2023-06-26T06:36:38;7.43;;;4.00;;
29534;SDS011;16475;52.650;8.116;2023-06-26T06:39:03;4.63;;;3.70;;
29534;SDS011;16475;52.650;8.116;2023-06-26T06:41:28;9.03;;;4.57;;
29534;SDS011;16475;52.650;8.116;2023-06-26T06:43:54;6.43;;;4.47;;
29534;SDS011;16475;52.650;8.116;2023-06-26T06:46:19;4.07;;;3.43;;
29534;SDS011;16475;52.650;8.116;2023-06-26T06:48:45;8.30;;;4.23;;
29534;SDS011;16475;52.650;8.116;2023-06-26T06:51:11;4.00;;;3.27;;
29534;SDS011;16475;52.650;8.116;2023-06-26T06:53:37;2.50;;;2.30;;
29534;SDS011;16475;52.650;8.116;2023-06-26T06:56:02;5.90;;;3.13;;
29534;SDS011;16475;52.650;8.116;2023-06-26T06:58:27;8.47;;;3.23;;
29534;SDS011;16475;52.650;8.116;2023-06-26T07:00:53;4.40;;;3.60;;
29534;SDS011;16475;52.650;8.116;2023-06-26T07:03:18;5.50;;;3.70;;
29534;SDS011;16475;52.650;8.116;2023-06-26T07:05:43;4.33;;;3.10;;
29534;SDS011;16475;52.650;8.116;2023-06-26T07:08:09;7.63;;;4.20;;
29534;SDS011;16475;52.650;8.116;2023-06-26T07:10:35;6.63;;;3.50;;
29534;SDS011;16475;52.650;8.116;2023-06-26T07:13:00;26.13;;;5.40;;
29534;SDS011;16475;52.650;8.116;2023-06-26T07:15:26;6.17;;;4.40;;
29534;SDS011;16475;52.650;8.116;2023-06-26T07:17:51;6.37;;;4.20;;
29534;SDS011;16475;52.650;8.116;2023-06-26T07:20:16;5.47;;;3.80;;
29534;SDS011;16475;52.650;8.116;2023-06-26T07:22:42;8.93;;;4.10;;
29534;SDS011;16475;52.650;8.116;2023-06-26T07:25:09;5.90;;;4.00;;
29534;SDS011;16475;52.650;8.116;2023-06-26T07:27:35;12.47;;;5.73;;
29534;SDS011;16475;52.650;8.116;2023-06-26T07:30:01;7.40;;;4.67;;
29534;SDS011;16475;52.650;8.116;2023-06-26T07:32:27;6.00;;;3.63;;
29534;SDS011;16475;52.650;8.116;2023-06-26T07:34:52;6.50;;;3.30;;
29534;SDS011;16475;52.650;8.116;2023-06-26T07:37:18;3.67;;;3.13;;
29534;SDS011;16475;52.650;8.116;2023-06-26T07:39:43;5.03;;;2.70;;
29534;SDS011;16475;52.650;8.116;2023-06-26T07:42:08;4.80;;;2.90;;
29534;SDS011;16475;52.650;8.116;2023-06-26T07:44:33;6.23;;;3.43;;
29534;SDS011;16475;52.650;8.116;2023-06-26T07:46:59;4.60;;;3.00;;
29534;SDS011;16475;52.650;8.116;2023-06-26T07:49:25;29.30;;;4.20;;
29534;SDS011;16475;52.650;8.116;2023-06-26T07:51:50;3.83;;;3.23;;
29534;SDS011;16475;52.650;8.116;2023-06-26T07:54:15;10.50;;;4.97;;
29534;SDS011;16475;52.650;8.116;2023-06-26T07:59:23;10.53;;;3.30;;
29534;SDS011;16475;52.650;8.116;2023-06-26T08:01:52;7.57;;;4.80;;
29534;SDS011;16475;52.650;8.116;2023-06-26T08:04:19;5.93;;;2.77;;
29534;SDS011;16475;52.650;8.116;2023-06-26T08:06:45;11.33;;;3.47;;
29534;SDS011;16475;52.650;8.116;2023-06-26T08:09:12;16.30;;;3.30;;
29534;SDS011;16475;52.650;8.116;2023-06-26T08:11:38;3.33;;;3.03;;
29534;SDS011;16475;52.650;8.116;2023-06-26T08:14:03;4.97;;;3.20;;
29534;SDS011;16475;52.650;8.116;2023-06-26T08:16:28;11.07;;;3.53;;
29534;SDS011;16475;52.650;8.116;2023-06-26T08:18:54;6.80;;;3.90;;
29534;SDS011;16475;52.650;8.116;2023-06-26T08:21:19;8.33;;;3.70;;
29534;SDS011;16475;52.650;8.116;2023-06-26T08:23:44;6.10;;;2.97;;
29534;SDS011;16475;52.650;8.116;2023-06-26T08:26:10;7.10;;;3.50;;
29534;SDS011;16475;52.650;8.116;2023-06-26T08:28:35;4.77;;;3.67;;
29534;SDS011;16475;52.650;8.116;2023-06-26T08:31:01;8.43;;;3.50;;
29534;SDS011;16475;52.650;8.116;2023-06-26T08:33:26;16.53;;;4.83;;
29534;SDS011;16475;52.650;8.116;2023-06-26T08:35:51;11.03;;;3.83;;
29534;SDS011;16475;52.650;8.116;2023-06-26T08:38:17;24.27;;;4.50;;
29534;SDS011;16475;52.650;8.116;2023-06-26T08:40:43;7.67;;;4.73;;
29534;SDS011;16475;52.650;8.116;2023-06-26T08:43:08;9.43;;;3.63;;
29534;SDS011;16475;52.650;8.116;2023-06-26T08:45:34;6.20;;;3.40;;
29534;SDS011;16475;52.650;8.116;2023-06-26T08:48:00;4.73;;;3.43;;
29534;SDS011;16475;52.650;8.116;2023-06-26T08:50:25;4.90;;;3.23;;
29534;SDS011;16475;52.650;8.116;2023-06-26T08:52:56;4.17;;;2.07;;
29534;SDS011;16475;52.650;8.116;2023-06-26T08:55:29;7.27;;;2.70;;
29534;SDS011;16475;52.650;8.116;2023-06-26T08:57:56;11.50;;;2.73;;
29534;SDS011;16475;52.650;8.116;2023-06-26T09:00:22;3.17;;;2.83;;
29534;SDS011;16475;52.650;8.116;2023-06-26T09:02:48;2.13;;;2.00;;
29534;SDS011;16475;52.650;8.116;2023-06-26T09:05:14;7.37;;;2.37;;
29534;SDS011;16475;52.650;8.116;2023-06-26T09:07:40;2.13;;;1.80;;
29534;SDS011;16475;52.650;8.116;2023-06-26T09:10:05;3.37;;;2.43;;
29534;SDS011;16475;52.650;8.116;2023-06-26T09:12:31;5.33;;;2.73;;
29534;SDS011;16475;52.650;8.116;2023-06-26T09:14:57;7.17;;;3.13;;
29534;SDS011;16475;52.650;8.116;2023-06-26T09:17:25;1.70;;;1.53;;
29534;SDS011;16475;52.650;8.116;2023-06-26T09:19:54;13.50;;;4.40;;
29534;SDS011;16475;52.650;8.116;2023-06-26T09:22:19;3.13;;;1.80;;
29534;SDS011;16475;52.650;8.116;2023-06-26T09:24:45;2.93;;;1.53;;
29534;SDS011;16475;52.650;8.116;2023-06-26T09:27:10;1.33;;;1.23;;
29534;SDS011;16475;52.650;8.116;2023-06-26T09:29:36;9.60;;;2.23;;
29534;SDS011;16475;52.650;8.116;2023-06-26T09:32:01;0.90;;;0.90;;
29534;SDS011;16475;52.650;8.116;2023-06-26T09:34:30;1.50;;;1.40;;
29534;SDS011;16475;52.650;8.116;2023-06-26T09:36:56;1.67;;;1.40;;
29534;SDS011;16475;52.650;8.116;2023-06-26T09:39:22;4.53;;;1.10;;
29534;SDS011;16475;52.650;8.116;2023-06-26T09:41:48;1.00;;;1.00;;
29534;SDS011;16475;52.650;8.116;2023-06-26T09:44:13;1.30;;;1.20;;
29534;SDS011;16475;52.650;8.116;2023-06-26T09:46:39;1.80;;;1.33;;
29534;SDS011;16475;52.650;8.116;2023-06-26T09:49:05;2.90;;;1.47;;
29534;SDS011;16475;52.650;8.116;2023-06-26T09:51:39;1.20;;;1.20;;
29534;SDS011;16475;52.650;8.116;2023-06-26T09:54:05;9.13;;;2.40;;
29534;SDS011;16475;52.650;8.116;2023-06-26T09:56:31;1.97;;;1.73;;
29534;SDS011;16475;52.650;8.116;2023-06-26T09:58:58;5.37;;;1.57;;
29534;SDS011;16475;52.650;8.116;2023-06-26T10:01:26;22.17;;;2.70;;
29534;SDS011;16475;52.650;8.116;2023-06-26T10:03:53;7.70;;;1.53;;
29534;SDS011;16475;52.650;8.116;2023-06-26T10:06:19;1.87;;;1.20;;
29534;SDS011;16475;52.650;8.116;2023-06-26T10:08:48;1.30;;;1.20;;
29534;SDS011;16475;52.650;8.116;2023-06-26T10:11:15;1.63;;;1.53;;
29534;SDS011;16475;52.650;8.116;2023-06-26T10:13:42;2.40;;;1.63;;
29534;SDS011;16475;52.650;8.116;2023-06-26T10:16:13;1.47;;;1.07;;
29534;SDS011;16475;52.650;8.116;2023-06-26T10:18:42;3.13;;;1.10;;
29534;SDS011;16475;52.650;8.116;2023-06-26T10:21:08;0.90;;;0.90;;
29534;SDS011;16475;52.650;8.116;2023-06-26T10:23:35;1.33;;;1.27;;
29534;SDS011;16475;52.650;8.116;2023-06-26T10:26:01;0.90;;;0.90;;
29534;SDS011;16475;52.650;8.116;2023-06-26T10:28:28;0.90;;;0.87;;
29534;SDS011;16475;52.650;8.116;2023-06-26T10:30:54;1.90;;;1.37;;
29534;SDS011;16475;52.650;8.116;2023-06-26T10:33:20;2.10;;;1.27;;
29534;SDS011;16475;52.650;8.116;2023-06-26T10:35:46;2.47;;;1.27;;
29534;SDS011;16475;52.650;8.116;2023-06-26T10:38:12;1.97;;;1.57;;
29534;SDS011;16475;52.650;8.116;2023-06-26T10:40:42;1.37;;;1.00;;
29534;SDS011;16475;52.650;8.116;2023-06-26T10:43:09;1.37;;;1.30;;
29534;SDS011;16475;52.650;8.116;2023-06-26T10:45:36;4.13;;;1.53;;
29534;SDS011;16475;52.650;8.116;2023-06-26T10:48:02;1.20;;;1.20;;
29534;SDS011;16475;52.650;8.116;2023-06-26T10:50:28;12.23;;;1.60;;
29534;SDS011;16475;52.650;8.116;2023-06-26T10:53:10;1.00;;;1.00;;
29534;SDS011;16475;52.650;8.116;2023-06-26T10:55:36;1.20;;;1.20;;
29534;SDS011;16475;52.650;8.116;2023-06-26T10:58:02;1.40;;;1.23;;
29534;SDS011;16475;52.650;8.116;2023-06-26T11:00:28;0.90;;;0.90;;
29534;SDS011;16475;52.650;8.116;2023-06-26T11:02:53;3.60;;;1.17;;
29534;SDS011;16475;52.650;8.116;2023-06-26T11:05:28;1.20;;;1.10;;
29534;SDS011;16475;52.650;8.116;2023-06-26T11:08:05;5.43;;;1.30;;
29534;SDS011;16475;52.650;8.116;2023-06-26T11:10:51;1.57;;;1.47;;
29534;SDS011;16475;52.650;8.116;2023-06-26T11:13:17;1.40;;;1.30;;
29534;SDS011;16475;52.650;8.116;2023-06-26T11:15:44;1.80;;;1.13;;
29534;SDS011;16475;52.650;8.116;2023-06-26T11:18:10;1.00;;;1.00;;
29534;SDS011;16475;52.650;8.116;2023-06-26T11:20:35;2.20;;;1.07;;
29534;SDS011;16475;52.650;8.116;2023-06-26T11:23:01;1.37;;;1.10;;
29534;SDS011;16475;52.650;8.116;2023-06-26T11:25:29;1.10;;;1.00;;
29534;SDS011;16475;52.650;8.116;2023-06-26T11:27:54;1.00;;;1.00;;
29534;SDS011;16475;52.650;8.116;2023-06-26T11:30:23;1.33;;;1.23;;
29534;SDS011;16475;52.650;8.116;2023-06-26T11:32:50;0.90;;;0.90;;
29534;SDS011;16475;52.650;8.116;2023-06-26T11:35:22;1.93;;;1.23;;
29534;SDS011;16475;52.650;8.116;2023-06-26T11:37:58;1.13;;;1.13;;
29534;SDS011;16475;52.650;8.116;2023-06-26T11:40:25;1.60;;;1.50;;
29534;SDS011;16475;52.650;8.116;2023-06-26T11:42:57;0.90;;;0.90;;
29534;SDS011;16475;52.650;8.116;2023-06-26T11:45:23;2.53;;;1.13;;
29534;SDS011;16475;52.650;8.116;2023-06-26T11:47:49;1.53;;;1.10;;
29534;SDS011;16475;52.650;8.116;2023-06-26T11:50:15;1.53;;;1.27;;
29534;SDS011;16475;52.650;8.116;2023-06-26T11:52:41;1.37;;;0.90;;
29534;SDS011;16475;52.650;8.116;2023-06-26T11:55:07;1.00;;;1.00;;
29534;SDS011;16475;52.650;8.116;2023-06-26T11:57:32;3.53;;;1.00;;
29534;SDS011;16475;52.650;8.116;2023-06-26T11:59:58;1.73;;;0.90;;
29534;SDS011;16475;52.650;8.116;2023-06-26T12:02:23;5.70;;;1.53;;
29534;SDS011;16475;52.650;8.116;2023-06-26T12:04:49;1.63;;;1.13;;
29534;SDS011;16475;52.650;8.116;2023-06-26T12:07:14;2.33;;;1.40;;
29534;SDS011;16475;52.650;8.116;2023-06-26T12:09:44;3.63;;;1.80;;
29534;SDS011;16475;52.650;8.116;2023-06-26T12:12:12;3.20;;;1.47;;
29534;SDS011;16475;52.650;8.116;2023-06-26T12:14:39;2.40;;;2.20;;
29534;SDS011;16475;52.650;8.116;2023-06-26T12:17:11;1.70;;;1.37;;
29534;SDS011;16475;52.650;8.116;2023-06-26T12:19:38;10.23;;;1.57;;
29534;SDS011;16475;52.650;8.116;2023-06-26T12:22:07;1.67;;;0.90;;
29534;SDS011;16475;52.650;8.116;2023-06-26T12:24:35;3.27;;;1.30;;
29534;SDS011;16475;52.650;8.116;2023-06-26T12:27:01;1.47;;;1.37;;
29534;SDS011;16475;52.650;8.116;2023-06-26T12:29:33;1.50;;;1.20;;
29534;SDS011;16475;52.650;8.116;2023-06-26T12:31:59;2.40;;;1.43;;
29534;SDS011;16475;52.650;8.116;2023-06-26T12:34:28;1.10;;;1.00;;
29534;SDS011;16475;52.650;8.116;2023-06-26T12:37:00;1.33;;;1.10;;
29534;SDS011;16475;52.650;8.116;2023-06-26T12:39:26;1.67;;;1.30;;
29534;SDS011;16475;52.650;8.116;2023-06-26T12:41:53;1.43;;;1.33;;
29534;SDS011;16475;52.650;8.116;2023-06-26T12:44:28;3.27;;;1.53;;
29534;SDS011;16475;52.650;8.116;2023-06-26T12:47:01;3.27;;;1.70;;
29534;SDS011;16475;52.650;8.116;2023-06-26T12:49:30;1.00;;;1.00;;
29534;SDS011;16475;52.650;8.116;2023-06-26T12:51:57;1.10;;;1.00;;
29534;SDS011;16475;52.650;8.116;2023-06-26T12:54:23;1.53;;;1.47;;
29534;SDS011;16475;52.650;8.116;2023-06-26T12:56:49;1.67;;;1.57;;
29534;SDS011;16475;52.650;8.116;2023-06-26T12:59:15;2.17;;;1.23;;
29534;SDS011;16475;52.650;8.116;2023-06-26T13:01:40;3.47;;;1.10;;
29534;SDS011;16475;52.650;8.116;2023-06-26T13:04:05;1.43;;;1.33;;
29534;SDS011;16475;52.650;8.116;2023-06-26T13:06:31;1.73;;;1.20;;
29534;SDS011;16475;52.650;8.116;2023-06-26T13:08:57;1.57;;;1.30;;
29534;SDS011;16475;52.650;8.116;2023-06-26T13:11:23;2.23;;;2.03;;
29534;SDS011;16475;52.650;8.116;2023-06-26T13:13:48;2.87;;;1.53;;
29534;SDS011;16475;52.650;8.116;2023-06-26T13:16:13;1.30;;;1.20;;
29534;SDS011;16475;52.650;8.116;2023-06-26T13:18:39;2.40;;;1.10;;
29534;SDS011;16475;52.650;8.116;2023-06-26T13:21:04;1.47;;;1.37;;
29534;SDS011;16475;52.650;8.116;2023-06-26T13:23:29;1.70;;;1.17;;
29534;SDS011;16475;52.650;8.116;2023-06-26T13:25:55;2.57;;;1.30;;
29534;SDS011;16475;52.650;8.116;2023-06-26T13:28:20;11.43;;;1.30;;
29534;SDS011;16475;52.650;8.116;2023-06-26T13:30:45;2.50;;;1.20;;
29534;SDS011;16475;52.650;8.116;2023-06-26T13:33:10;1.20;;;1.13;;
29534;SDS011;16475;52.650;8.116;2023-06-26T13:35:36;3.33;;;2.13;;
29534;SDS011;16475;52.650;8.116;2023-06-26T13:38:01;2.17;;;1.50;;
29534;SDS011;16475;52.650;8.116;2023-06-26T13:40:26;4.33;;;1.37;;
29534;SDS011;16475;52.650;8.116;2023-06-26T13:42:52;4.40;;;0.90;;
29534;SDS011;16475;52.650;8.116;2023-06-26T13:45:17;2.40;;;1.30;;
29534;SDS011;16475;52.650;8.116;2023-06-26T13:47:43;12.30;;;1.20;;
29534;SDS011;16475;52.650;8.116;2023-06-26T13:50:09;5.60;;;1.27;;
29534;SDS011;16475;52.650;8.116;2023-06-26T13:52:34;3.70;;;1.43;;
29534;SDS011;16475;52.650;8.116;2023-06-26T13:55:00;1.03;;;1.03;;
29534;SDS011;16475;52.650;8.116;2023-06-26T13:57:25;0.90;;;0.90;;
29534;SDS011;16475;52.650;8.116;2023-06-26T13:59:52;1.57;;;1.30;;
29534;SDS011;16475;52.650;8.116;2023-06-26T14:02:18;3.10;;;1.50;;
29534;SDS011;16475;52.650;8.116;2023-06-26T14:04:43;0.93;;;0.93;;
29534;SDS011;16475;52.650;8.116;2023-06-26T14:07:08;4.90;;;1.13;;
29534;SDS011;16475;52.650;8.116;2023-06-26T14:09:34;2.00;;;1.13;;
29534;SDS011;16475;52.650;8.116;2023-06-26T14:11:59;1.10;;;1.00;;
29534;SDS011;16475;52.650;8.116;2023-06-26T14:14:25;2.00;;;1.63;;
29534;SDS011;16475;52.650;8.116;2023-06-26T14:16:50;4.87;;;1.73;;
29534;SDS011;16475;52.650;8.116;2023-06-26T14:19:16;1.33;;;1.20;;
29534;SDS011;16475;52.650;8.116;2023-06-26T14:21:42;1.17;;;0.90;;
29534;SDS011;16475;52.650;8.116;2023-06-26T14:24:07;6.83;;;1.57;;
29534;SDS011;16475;52.650;8.116;2023-06-26T14:26:33;5.33;;;1.27;;
29534;SDS011;16475;52.650;8.116;2023-06-26T14:28:59;1.00;;;1.00;;
29534;SDS011;16475;52.650;8.116;2023-06-26T14:31:25;7.33;;;1.30;;
29534;SDS011;16475;52.650;8.116;2023-06-26T14:33:51;2.93;;;0.93;;
29534;SDS011;16475;52.650;8.116;2023-06-26T14:36:16;4.93;;;1.60;;
29534;SDS011;16475;52.650;8.116;2023-06-26T14:38:41;8.03;;;1.50;;
29534;SDS011;16475;52.650;8.116;2023-06-26T14:41:07;1.20;;;1.10;;
29534;SDS011;16475;52.650;8.116;2023-06-26T14:43:32;2.83;;;1.40;;
29534;SDS011;16475;52.650;8.116;2023-06-26T14:45:58;0.90;;;0.90;;
29534;SDS011;16475;52.650;8.116;2023-06-26T14:48:23;4.30;;;1.23;;